sensor_id;sensor_type;location;lat;lon;timestamp;P1;durP1;ratioP1;P2;durP2;ratioP2
77146;SDS011;66121;52.584;9.694;2023-01-29T00:02:14;24.65;;;12.13;;
77146;SDS011;66121;52.584;9.694;2023-01-29T00:04:40;27.10;;;12.70;;
77146;SDS011;66121;52.584;9.694;2023-01-29T00:07:05;27.13;;;11.97;;
77146;SDS011;66121;52.584;9.694;2023-01-29T00:09:30;27.37;;;12.57;;
77146;SDS011;66121;52.584;9.694;2023-01-29T00:11:56;25.35;;;12.40;;
77146;SDS011;66121;52.584;9.694;2023-01-29T00:14:21;28.20;;;12.35;;
77146;SDS011;66121;52.584;9.694;2023-01-29T00:16:46;28.63;;;11.68;;
77146;SDS011;66121;52.584;9.694;2023-01-29T00:19:12;28.53;;;13.37;;
77146;SDS011;66121;52.584;9.694;2023-01-29T00:21:37;31.40;;;13.00;;
77146;SDS011;66121;52.584;9.694;2023-01-29T00:24:03;27.13;;;12.18;;
77146;SDS011;66121;52.584;9.694;2023-01-29T00:26:28;26.05;;;12.15;;
77146;SDS011;66121;52.584;9.694;2023-01-29T00:28:54;30.92;;;13.77;;
77146;SDS011;66121;52.584;9.694;2023-01-29T00:31:22;26.27;;;12.50;;
77146;SDS011;66121;52.584;9.694;2023-01-29T00:33:48;28.02;;;12.63;;
77146;SDS011;66121;52.584;9.694;2023-01-29T00:36:15;25.50;;;12.63;;
77146;SDS011;66121;52.584;9.694;2023-01-29T00:38:41;23.60;;;12.00;;
77146;SDS011;66121;52.584;9.694;2023-01-29T00:41:08;28.00;;;12.85;;
77146;SDS011;66121;52.584;9.694;2023-01-29T00:43:52;29.17;;;12.82;;
77146;SDS011;66121;52.584;9.694;2023-01-29T00:46:36;31.27;;;12.98;;
77146;SDS011;66121;52.584;9.694;2023-01-29T00:49:02;29.42;;;13.20;;
77146;SDS011;66121;52.584;9.694;2023-01-29T00:51:28;29.33;;;13.18;;
77146;SDS011;66121;52.584;9.694;2023-01-29T00:53:53;30.25;;;13.00;;
77146;SDS011;66121;52.584;9.694;2023-01-29T00:56:25;31.95;;;13.40;;
77146;SDS011;66121;52.584;9.694;2023-01-29T00:58:52;30.60;;;12.48;;
77146;SDS011;66121;52.584;9.694;2023-01-29T01:01:18;26.85;;;12.20;;
77146;SDS011;66121;52.584;9.694;2023-01-29T01:04:07;25.10;;;12.38;;
77146;SDS011;66121;52.584;9.694;2023-01-29T01:06:35;23.92;;;11.80;;
77146;SDS011;66121;52.584;9.694;2023-01-29T01:09:01;25.55;;;12.18;;
77146;SDS011;66121;52.584;9.694;2023-01-29T01:11:46;29.65;;;13.02;;
77146;SDS011;66121;52.584;9.694;2023-01-29T01:14:11;28.87;;;12.10;;
77146;SDS011;66121;52.584;9.694;2023-01-29T01:16:36;32.77;;;11.97;;
77146;SDS011;66121;52.584;9.694;2023-01-29T01:19:02;28.83;;;12.73;;
77146;SDS011;66121;52.584;9.694;2023-01-29T01:21:28;28.80;;;13.40;;
77146;SDS011;66121;52.584;9.694;2023-01-29T01:23:53;32.13;;;12.90;;
77146;SDS011;66121;52.584;9.694;2023-01-29T01:26:18;27.17;;;12.43;;
77146;SDS011;66121;52.584;9.694;2023-01-29T01:28:44;26.23;;;11.03;;
77146;SDS011;66121;52.584;9.694;2023-01-29T01:31:10;27.50;;;12.50;;
77146;SDS011;66121;52.584;9.694;2023-01-29T01:33:36;25.92;;;11.95;;
77146;SDS011;66121;52.584;9.694;2023-01-29T01:36:02;27.05;;;12.27;;
77146;SDS011;66121;52.584;9.694;2023-01-29T01:38:27;28.55;;;11.75;;
77146;SDS011;66121;52.584;9.694;2023-01-29T01:40:53;26.90;;;11.80;;
77146;SDS011;66121;52.584;9.694;2023-01-29T01:43:18;28.83;;;12.50;;
77146;SDS011;66121;52.584;9.694;2023-01-29T01:45:43;28.50;;;12.07;;
77146;SDS011;66121;52.584;9.694;2023-01-29T01:48:23;28.67;;;12.73;;
77146;SDS011;66121;52.584;9.694;2023-01-29T01:50:57;27.48;;;11.30;;
77146;SDS011;66121;52.584;9.694;2023-01-29T01:53:40;28.38;;;12.32;;
77146;SDS011;66121;52.584;9.694;2023-01-29T01:56:12;26.33;;;11.98;;
77146;SDS011;66121;52.584;9.694;2023-01-29T01:58:41;32.63;;;13.25;;
77146;SDS011;66121;52.584;9.694;2023-01-29T02:01:09;29.33;;;13.13;;
77146;SDS011;66121;52.584;9.694;2023-01-29T02:03:37;26.48;;;12.15;;
77146;SDS011;66121;52.584;9.694;2023-01-29T02:06:26;26.95;;;13.27;;
77146;SDS011;66121;52.584;9.694;2023-01-29T02:09:15;30.92;;;13.90;;
77146;SDS011;66121;52.584;9.694;2023-01-29T02:12:07;26.52;;;12.13;;
77146;SDS011;66121;52.584;9.694;2023-01-29T02:14:35;31.75;;;13.35;;
77146;SDS011;66121;52.584;9.694;2023-01-29T02:17:04;30.13;;;12.27;;
77146;SDS011;66121;52.584;9.694;2023-01-29T02:19:35;29.70;;;13.02;;
77146;SDS011;66121;52.584;9.694;2023-01-29T02:25:08;27.75;;;12.40;;
77146;SDS011;66121;52.584;9.694;2023-01-29T02:27:57;28.15;;;13.23;;
77146;SDS011;66121;52.584;9.694;2023-01-29T02:30:33;32.70;;;13.57;;
77146;SDS011;66121;52.584;9.694;2023-01-29T02:35:58;27.45;;;12.45;;
77146;SDS011;66121;52.584;9.694;2023-01-29T02:38:42;28.95;;;12.48;;
77146;SDS011;66121;52.584;9.694;2023-01-29T02:43:46;28.17;;;13.80;;
77146;SDS011;66121;52.584;9.694;2023-01-29T02:46:36;28.58;;;12.73;;
77146;SDS011;66121;52.584;9.694;2023-01-29T02:49:19;26.52;;;11.60;;
77146;SDS011;66121;52.584;9.694;2023-01-29T02:51:57;27.55;;;13.63;;
77146;SDS011;66121;52.584;9.694;2023-01-29T02:56:57;35.33;;;13.93;;
77146;SDS011;66121;52.584;9.694;2023-01-29T02:59:30;31.95;;;13.23;;
77146;SDS011;66121;52.584;9.694;2023-01-29T03:02:10;29.00;;;13.38;;
77146;SDS011;66121;52.584;9.694;2023-01-29T03:04:41;29.65;;;13.70;;
77146;SDS011;66121;52.584;9.694;2023-01-29T03:07:18;29.80;;;12.85;;
77146;SDS011;66121;52.584;9.694;2023-01-29T03:10:12;29.92;;;13.98;;
77146;SDS011;66121;52.584;9.694;2023-01-29T03:12:43;32.20;;;13.85;;
77146;SDS011;66121;52.584;9.694;2023-01-29T03:15:15;32.40;;;12.88;;
77146;SDS011;66121;52.584;9.694;2023-01-29T03:18:03;30.73;;;12.80;;
77146;SDS011;66121;52.584;9.694;2023-01-29T03:20:33;29.23;;;12.35;;
77146;SDS011;66121;52.584;9.694;2023-01-29T03:23:06;29.85;;;12.80;;
77146;SDS011;66121;52.584;9.694;2023-01-29T03:25:35;29.90;;;13.98;;
77146;SDS011;66121;52.584;9.694;2023-01-29T03:28:23;29.48;;;12.88;;
77146;SDS011;66121;52.584;9.694;2023-01-29T03:34:11;27.63;;;12.50;;
77146;SDS011;66121;52.584;9.694;2023-01-29T03:36:45;26.08;;;12.18;;
77146;SDS011;66121;52.584;9.694;2023-01-29T03:39:26;34.63;;;12.70;;
77146;SDS011;66121;52.584;9.694;2023-01-29T03:44:20;29.47;;;13.20;;
77146;SDS011;66121;52.584;9.694;2023-01-29T03:46:55;31.10;;;13.77;;
77146;SDS011;66121;52.584;9.694;2023-01-29T03:49:36;33.03;;;13.50;;
77146;SDS011;66121;52.584;9.694;2023-01-29T03:52:36;34.00;;;13.35;;
77146;SDS011;66121;52.584;9.694;2023-01-29T03:58:42;30.02;;;12.10;;
77146;SDS011;66121;52.584;9.694;2023-01-29T04:01:00;32.55;;;13.43;;
77146;SDS011;66121;52.584;9.694;2023-01-29T04:03:33;33.55;;;12.45;;
77146;SDS011;66121;52.584;9.694;2023-01-29T04:06:03;30.15;;;13.00;;
77146;SDS011;66121;52.584;9.694;2023-01-29T04:08:35;30.67;;;12.75;;
77146;SDS011;66121;52.584;9.694;2023-01-29T04:11:10;27.17;;;12.13;;
77146;SDS011;66121;52.584;9.694;2023-01-29T04:13:40;34.88;;;13.30;;
77146;SDS011;66121;52.584;9.694;2023-01-29T04:16:06;29.27;;;12.75;;
77146;SDS011;66121;52.584;9.694;2023-01-29T04:21:03;30.17;;;11.88;;
77146;SDS011;66121;52.584;9.694;2023-01-29T04:23:31;26.42;;;12.80;;
77146;SDS011;66121;52.584;9.694;2023-01-29T04:26:13;32.25;;;12.20;;
77146;SDS011;66121;52.584;9.694;2023-01-29T04:32:14;32.67;;;13.77;;
77146;SDS011;66121;52.584;9.694;2023-01-29T04:34:58;28.33;;;11.88;;
77146;SDS011;66121;52.584;9.694;2023-01-29T04:37:32;29.38;;;11.35;;
77146;SDS011;66121;52.584;9.694;2023-01-29T04:40:22;29.35;;;12.43;;
77146;SDS011;66121;52.584;9.694;2023-01-29T04:50:49;26.88;;;12.63;;
77146;SDS011;66121;52.584;9.694;2023-01-29T04:53:44;30.67;;;12.85;;
77146;SDS011;66121;52.584;9.694;2023-01-29T04:56:24;30.83;;;12.50;;
77146;SDS011;66121;52.584;9.694;2023-01-29T04:58:57;29.00;;;12.90;;
77146;SDS011;66121;52.584;9.694;2023-01-29T05:01:27;33.30;;;13.25;;
77146;SDS011;66121;52.584;9.694;2023-01-29T05:03:57;31.40;;;12.82;;
77146;SDS011;66121;52.584;9.694;2023-01-29T05:06:24;30.70;;;11.88;;
77146;SDS011;66121;52.584;9.694;2023-01-29T05:08:50;26.48;;;10.88;;
77146;SDS011;66121;52.584;9.694;2023-01-29T05:11:17;25.02;;;11.68;;
77146;SDS011;66121;52.584;9.694;2023-01-29T05:13:44;28.27;;;12.60;;
77146;SDS011;66121;52.584;9.694;2023-01-29T05:16:18;25.25;;;11.55;;
77146;SDS011;66121;52.584;9.694;2023-01-29T05:18:47;25.58;;;10.95;;
77146;SDS011;66121;52.584;9.694;2023-01-29T05:21:13;28.58;;;12.25;;
77146;SDS011;66121;52.584;9.694;2023-01-29T05:23:38;28.23;;;10.93;;
77146;SDS011;66121;52.584;9.694;2023-01-29T05:26:04;25.60;;;11.33;;
77146;SDS011;66121;52.584;9.694;2023-01-29T05:28:30;31.52;;;13.07;;
77146;SDS011;66121;52.584;9.694;2023-01-29T05:30:55;26.73;;;11.98;;
77146;SDS011;66121;52.584;9.694;2023-01-29T05:33:25;24.48;;;11.40;;
77146;SDS011;66121;52.584;9.694;2023-01-29T05:35:52;28.48;;;11.10;;
77146;SDS011;66121;52.584;9.694;2023-01-29T05:38:19;26.92;;;11.30;;
77146;SDS011;66121;52.584;9.694;2023-01-29T05:40:45;25.70;;;12.30;;
77146;SDS011;66121;52.584;9.694;2023-01-29T05:43:18;28.52;;;11.63;;
77146;SDS011;66121;52.584;9.694;2023-01-29T05:45:55;30.10;;;12.55;;
77146;SDS011;66121;52.584;9.694;2023-01-29T05:48:22;26.63;;;11.02;;
77146;SDS011;66121;52.584;9.694;2023-01-29T05:50:47;27.92;;;11.35;;
77146;SDS011;66121;52.584;9.694;2023-01-29T05:53:13;28.67;;;12.30;;
77146;SDS011;66121;52.584;9.694;2023-01-29T05:55:38;25.30;;;12.75;;
77146;SDS011;66121;52.584;9.694;2023-01-29T05:58:04;27.30;;;11.65;;
77146;SDS011;66121;52.584;9.694;2023-01-29T06:00:30;32.63;;;13.23;;
77146;SDS011;66121;52.584;9.694;2023-01-29T06:02:56;31.27;;;13.48;;
77146;SDS011;66121;52.584;9.694;2023-01-29T06:05:22;28.80;;;11.82;;
77146;SDS011;66121;52.584;9.694;2023-01-29T06:07:47;31.63;;;12.17;;
77146;SDS011;66121;52.584;9.694;2023-01-29T06:10:13;27.37;;;12.20;;
77146;SDS011;66121;52.584;9.694;2023-01-29T06:12:41;27.52;;;11.65;;
77146;SDS011;66121;52.584;9.694;2023-01-29T06:15:07;31.00;;;13.07;;
77146;SDS011;66121;52.584;9.694;2023-01-29T06:17:33;31.98;;;13.50;;
77146;SDS011;66121;52.584;9.694;2023-01-29T06:19:58;33.88;;;13.02;;
77146;SDS011;66121;52.584;9.694;2023-01-29T06:22:23;33.13;;;13.55;;
77146;SDS011;66121;52.584;9.694;2023-01-29T06:24:49;29.63;;;11.90;;
77146;SDS011;66121;52.584;9.694;2023-01-29T06:27:14;30.87;;;12.40;;
77146;SDS011;66121;52.584;9.694;2023-01-29T06:29:39;37.63;;;14.45;;
77146;SDS011;66121;52.584;9.694;2023-01-29T06:32:05;31.73;;;13.53;;
77146;SDS011;66121;52.584;9.694;2023-01-29T06:34:30;29.83;;;12.45;;
77146;SDS011;66121;52.584;9.694;2023-01-29T06:36:55;33.20;;;14.23;;
77146;SDS011;66121;52.584;9.694;2023-01-29T06:39:21;37.72;;;14.38;;
77146;SDS011;66121;52.584;9.694;2023-01-29T06:41:46;36.90;;;15.20;;
77146;SDS011;66121;52.584;9.694;2023-01-29T06:44:11;32.23;;;13.23;;
77146;SDS011;66121;52.584;9.694;2023-01-29T06:46:37;32.40;;;13.80;;
77146;SDS011;66121;52.584;9.694;2023-01-29T06:49:02;35.83;;;14.53;;
77146;SDS011;66121;52.584;9.694;2023-01-29T06:51:27;34.13;;;14.77;;
77146;SDS011;66121;52.584;9.694;2023-01-29T06:53:52;39.87;;;16.40;;
77146;SDS011;66121;52.584;9.694;2023-01-29T06:56:20;38.78;;;16.95;;
77146;SDS011;66121;52.584;9.694;2023-01-29T06:58:45;37.42;;;14.98;;
77146;SDS011;66121;52.584;9.694;2023-01-29T07:01:11;38.90;;;15.77;;
77146;SDS011;66121;52.584;9.694;2023-01-29T07:03:36;39.60;;;15.07;;
77146;SDS011;66121;52.584;9.694;2023-01-29T07:06:02;39.53;;;15.10;;
77146;SDS011;66121;52.584;9.694;2023-01-29T07:08:28;39.22;;;15.10;;
77146;SDS011;66121;52.584;9.694;2023-01-29T07:10:57;39.22;;;15.95;;
77146;SDS011;66121;52.584;9.694;2023-01-29T07:13:24;38.88;;;15.85;;
77146;SDS011;66121;52.584;9.694;2023-01-29T07:15:49;41.37;;;15.73;;
77146;SDS011;66121;52.584;9.694;2023-01-29T07:18:14;40.53;;;15.67;;
77146;SDS011;66121;52.584;9.694;2023-01-29T07:20:40;38.83;;;15.50;;
77146;SDS011;66121;52.584;9.694;2023-01-29T07:23:08;39.45;;;15.55;;
77146;SDS011;66121;52.584;9.694;2023-01-29T07:25:35;41.75;;;17.25;;
77146;SDS011;66121;52.584;9.694;2023-01-29T07:28:01;36.55;;;16.35;;
77146;SDS011;66121;52.584;9.694;2023-01-29T07:30:27;38.65;;;16.30;;
77146;SDS011;66121;52.584;9.694;2023-01-29T07:32:53;50.17;;;18.85;;
77146;SDS011;66121;52.584;9.694;2023-01-29T07:35:18;49.63;;;19.57;;
77146;SDS011;66121;52.584;9.694;2023-01-29T07:37:43;44.35;;;18.73;;
77146;SDS011;66121;52.584;9.694;2023-01-29T07:40:12;52.03;;;19.17;;
77146;SDS011;66121;52.584;9.694;2023-01-29T07:42:38;52.20;;;20.35;;
77146;SDS011;66121;52.584;9.694;2023-01-29T07:45:04;47.15;;;18.50;;
77146;SDS011;66121;52.584;9.694;2023-01-29T07:47:30;50.35;;;18.42;;
77146;SDS011;66121;52.584;9.694;2023-01-29T07:49:55;48.10;;;19.70;;
77146;SDS011;66121;52.584;9.694;2023-01-29T07:52:21;52.07;;;20.60;;
77146;SDS011;66121;52.584;9.694;2023-01-29T07:54:46;49.23;;;20.60;;
77146;SDS011;66121;52.584;9.694;2023-01-29T07:57:11;55.00;;;21.63;;
77146;SDS011;66121;52.584;9.694;2023-01-29T07:59:37;52.47;;;20.77;;
77146;SDS011;66121;52.584;9.694;2023-01-29T08:02:02;50.93;;;19.27;;
77146;SDS011;66121;52.584;9.694;2023-01-29T08:04:28;49.90;;;20.00;;
77146;SDS011;66121;52.584;9.694;2023-01-29T08:06:53;49.10;;;19.30;;
77146;SDS011;66121;52.584;9.694;2023-01-29T08:09:18;55.07;;;20.90;;
77146;SDS011;66121;52.584;9.694;2023-01-29T08:11:44;52.47;;;19.60;;
77146;SDS011;66121;52.584;9.694;2023-01-29T08:14:09;48.57;;;19.30;;
77146;SDS011;66121;52.584;9.694;2023-01-29T08:16:34;56.03;;;21.90;;
77146;SDS011;66121;52.584;9.694;2023-01-29T08:19:00;51.40;;;21.50;;
77146;SDS011;66121;52.584;9.694;2023-01-29T08:21:26;49.90;;;18.92;;
77146;SDS011;66121;52.584;9.694;2023-01-29T08:23:51;58.00;;;22.00;;
77146;SDS011;66121;52.584;9.694;2023-01-29T08:26:16;54.27;;;22.80;;
77146;SDS011;66121;52.584;9.694;2023-01-29T08:28:42;57.85;;;23.08;;
77146;SDS011;66121;52.584;9.694;2023-01-29T08:31:14;61.53;;;24.37;;
77146;SDS011;66121;52.584;9.694;2023-01-29T08:33:41;54.60;;;22.30;;
77146;SDS011;66121;52.584;9.694;2023-01-29T08:36:06;59.97;;;23.80;;
77146;SDS011;66121;52.584;9.694;2023-01-29T08:38:32;56.67;;;22.33;;
77146;SDS011;66121;52.584;9.694;2023-01-29T08:40:58;58.73;;;21.40;;
77146;SDS011;66121;52.584;9.694;2023-01-29T08:43:23;60.17;;;22.13;;
77146;SDS011;66121;52.584;9.694;2023-01-29T08:45:48;52.30;;;19.58;;
77146;SDS011;66121;52.584;9.694;2023-01-29T08:48:13;58.37;;;21.40;;
77146;SDS011;66121;52.584;9.694;2023-01-29T08:50:39;57.33;;;23.00;;
77146;SDS011;66121;52.584;9.694;2023-01-29T08:53:05;53.63;;;21.17;;
77146;SDS011;66121;52.584;9.694;2023-01-29T08:55:32;52.90;;;20.15;;
77146;SDS011;66121;52.584;9.694;2023-01-29T08:58:00;54.85;;;21.52;;
77146;SDS011;66121;52.584;9.694;2023-01-29T09:00:28;52.35;;;20.83;;
77146;SDS011;66121;52.584;9.694;2023-01-29T09:02:53;51.90;;;20.60;;
77146;SDS011;66121;52.584;9.694;2023-01-29T09:05:18;51.00;;;20.75;;
77146;SDS011;66121;52.584;9.694;2023-01-29T09:07:44;51.23;;;19.53;;
77146;SDS011;66121;52.584;9.694;2023-01-29T09:10:09;55.67;;;21.30;;
77146;SDS011;66121;52.584;9.694;2023-01-29T09:12:36;52.72;;;20.40;;
77146;SDS011;66121;52.584;9.694;2023-01-29T09:15:01;55.40;;;19.15;;
77146;SDS011;66121;52.584;9.694;2023-01-29T09:17:26;42.23;;;19.53;;
77146;SDS011;66121;52.584;9.694;2023-01-29T09:19:52;54.00;;;20.00;;
77146;SDS011;66121;52.584;9.694;2023-01-29T09:22:17;51.73;;;19.53;;
77146;SDS011;66121;52.584;9.694;2023-01-29T09:24:43;46.67;;;17.60;;
77146;SDS011;66121;52.584;9.694;2023-01-29T09:27:09;47.90;;;19.80;;
77146;SDS011;66121;52.584;9.694;2023-01-29T09:29:34;47.45;;;18.10;;
77146;SDS011;66121;52.584;9.694;2023-01-29T09:32:00;48.03;;;19.58;;
77146;SDS011;66121;52.584;9.694;2023-01-29T09:34:25;42.40;;;18.47;;
77146;SDS011;66121;52.584;9.694;2023-01-29T09:36:51;47.30;;;18.17;;
77146;SDS011;66121;52.584;9.694;2023-01-29T09:39:16;49.45;;;17.80;;
77146;SDS011;66121;52.584;9.694;2023-01-29T09:47:26;47.72;;;18.20;;
77146;SDS011;66121;52.584;9.694;2023-01-29T09:49:54;41.83;;;17.63;;
77146;SDS011;66121;52.584;9.694;2023-01-29T09:52:30;41.35;;;18.15;;
77146;SDS011;66121;52.584;9.694;2023-01-29T10:00:39;42.00;;;16.83;;
77146;SDS011;66121;52.584;9.694;2023-01-29T10:16:42;39.80;;;15.35;;
77146;SDS011;66121;52.584;9.694;2023-01-29T10:20:09;47.17;;;18.40;;
77146;SDS011;66121;52.584;9.694;2023-01-29T10:40:22;42.72;;;17.98;;
77146;SDS011;66121;52.584;9.694;2023-01-29T10:42:59;42.72;;;17.00;;
77146;SDS011;66121;52.584;9.694;2023-01-29T10:45:35;39.42;;;16.08;;
77146;SDS011;66121;52.584;9.694;2023-01-29T10:48:10;44.13;;;18.92;;
77146;SDS011;66121;52.584;9.694;2023-01-29T10:54:48;42.35;;;17.58;;
77146;SDS011;66121;52.584;9.694;2023-01-29T10:59:31;34.67;;;15.80;;
77146;SDS011;66121;52.584;9.694;2023-01-29T11:02:11;37.15;;;16.10;;
77146;SDS011;66121;52.584;9.694;2023-01-29T11:04:41;41.97;;;17.20;;
77146;SDS011;66121;52.584;9.694;2023-01-29T11:07:07;36.72;;;15.90;;
77146;SDS011;66121;52.584;9.694;2023-01-29T11:09:34;35.58;;;15.02;;
77146;SDS011;66121;52.584;9.694;2023-01-29T11:12:19;39.60;;;16.52;;
77146;SDS011;66121;52.584;9.694;2023-01-29T11:17:17;39.92;;;15.55;;
77146;SDS011;66121;52.584;9.694;2023-01-29T11:19:46;41.83;;;17.00;;
77146;SDS011;66121;52.584;9.694;2023-01-29T11:22:13;39.75;;;14.55;;
77146;SDS011;66121;52.584;9.694;2023-01-29T11:24:40;37.95;;;16.45;;
77146;SDS011;66121;52.584;9.694;2023-01-29T11:27:13;37.80;;;15.40;;
77146;SDS011;66121;52.584;9.694;2023-01-29T11:29:46;43.05;;;16.58;;
77146;SDS011;66121;52.584;9.694;2023-01-29T11:35:03;42.90;;;17.85;;
77146;SDS011;66121;52.584;9.694;2023-01-29T11:37:38;39.58;;;16.17;;
77146;SDS011;66121;52.584;9.694;2023-01-29T11:42:43;33.70;;;15.38;;
77146;SDS011;66121;52.584;9.694;2023-01-29T11:47:43;40.33;;;16.42;;
77146;SDS011;66121;52.584;9.694;2023-01-29T11:50:18;43.47;;;18.52;;
77146;SDS011;66121;52.584;9.694;2023-01-29T11:52:46;37.25;;;15.40;;
77146;SDS011;66121;52.584;9.694;2023-01-29T11:55:14;35.00;;;14.55;;
77146;SDS011;66121;52.584;9.694;2023-01-29T11:57:45;43.88;;;18.35;;
77146;SDS011;66121;52.584;9.694;2023-01-29T12:03:34;38.05;;;17.17;;
77146;SDS011;66121;52.584;9.694;2023-01-29T12:05:58;40.78;;;17.48;;
77146;SDS011;66121;52.584;9.694;2023-01-29T12:08:30;42.72;;;18.13;;
77146;SDS011;66121;52.584;9.694;2023-01-29T12:11:10;40.20;;;17.40;;
77146;SDS011;66121;52.584;9.694;2023-01-29T12:13:39;41.20;;;18.15;;
77146;SDS011;66121;52.584;9.694;2023-01-29T12:24:11;42.47;;;17.23;;
77146;SDS011;66121;52.584;9.694;2023-01-29T12:26:48;46.30;;;18.45;;
77146;SDS011;66121;52.584;9.694;2023-01-29T12:34:49;43.40;;;18.33;;
77146;SDS011;66121;52.584;9.694;2023-01-29T12:37:24;33.38;;;15.10;;
77146;SDS011;66121;52.584;9.694;2023-01-29T12:39:58;43.80;;;17.83;;
77146;SDS011;66121;52.584;9.694;2023-01-29T12:42:25;45.50;;;19.15;;
77146;SDS011;66121;52.584;9.694;2023-01-29T12:44:52;47.50;;;18.58;;
77146;SDS011;66121;52.584;9.694;2023-01-29T12:49:53;38.17;;;16.75;;
77146;SDS011;66121;52.584;9.694;2023-01-29T12:52:38;38.90;;;17.98;;
77146;SDS011;66121;52.584;9.694;2023-01-29T12:55:11;44.60;;;17.15;;
77146;SDS011;66121;52.584;9.694;2023-01-29T12:58:00;42.22;;;16.77;;
77146;SDS011;66121;52.584;9.694;2023-01-29T13:00:32;38.75;;;16.38;;
77146;SDS011;66121;52.584;9.694;2023-01-29T13:08:33;45.75;;;18.67;;
77146;SDS011;66121;52.584;9.694;2023-01-29T13:11:01;50.80;;;20.70;;
77146;SDS011;66121;52.584;9.694;2023-01-29T13:13:33;46.10;;;17.83;;
77146;SDS011;66121;52.584;9.694;2023-01-29T13:16:08;43.22;;;17.48;;
77146;SDS011;66121;52.584;9.694;2023-01-29T13:18:39;43.85;;;19.45;;
77146;SDS011;66121;52.584;9.694;2023-01-29T13:21:05;43.90;;;19.17;;
77146;SDS011;66121;52.584;9.694;2023-01-29T13:23:38;38.83;;;17.52;;
77146;SDS011;66121;52.584;9.694;2023-01-29T13:26:09;37.17;;;15.63;;
77146;SDS011;66121;52.584;9.694;2023-01-29T13:28:35;40.30;;;17.95;;
77146;SDS011;66121;52.584;9.694;2023-01-29T13:34:00;41.95;;;19.38;;
77146;SDS011;66121;52.584;9.694;2023-01-29T13:36:32;41.72;;;16.80;;
77146;SDS011;66121;52.584;9.694;2023-01-29T13:39:01;53.22;;;18.40;;
77146;SDS011;66121;52.584;9.694;2023-01-29T13:41:30;43.00;;;17.52;;
77146;SDS011;66121;52.584;9.694;2023-01-29T13:43:58;44.42;;;19.80;;
77146;SDS011;66121;52.584;9.694;2023-01-29T14:00:49;30.42;;;12.73;;
77146;SDS011;66121;52.584;9.694;2023-01-29T14:05:57;36.22;;;16.02;;
77146;SDS011;66121;52.584;9.694;2023-01-29T14:13:40;39.55;;;19.27;;
77146;SDS011;66121;52.584;9.694;2023-01-29T14:18:35;48.67;;;20.60;;
77146;SDS011;66121;52.584;9.694;2023-01-29T14:36:56;46.80;;;19.42;;
77146;SDS011;66121;52.584;9.694;2023-01-29T14:39:32;44.65;;;19.27;;
77146;SDS011;66121;52.584;9.694;2023-01-29T14:42:01;45.70;;;18.00;;
77146;SDS011;66121;52.584;9.694;2023-01-29T14:47:21;45.67;;;19.65;;
77146;SDS011;66121;52.584;9.694;2023-01-29T14:52:43;49.20;;;19.88;;
77146;SDS011;66121;52.584;9.694;2023-01-29T14:55:16;50.13;;;20.83;;
77146;SDS011;66121;52.584;9.694;2023-01-29T14:58:03;44.15;;;19.85;;
77146;SDS011;66121;52.584;9.694;2023-01-29T15:00:31;56.97;;;23.38;;
77146;SDS011;66121;52.584;9.694;2023-01-29T15:03:01;56.53;;;22.98;;
77146;SDS011;66121;52.584;9.694;2023-01-29T15:05:36;53.13;;;22.00;;
77146;SDS011;66121;52.584;9.694;2023-01-29T15:10:54;42.70;;;20.08;;
77146;SDS011;66121;52.584;9.694;2023-01-29T15:13:54;54.90;;;21.88;;
77146;SDS011;66121;52.584;9.694;2023-01-29T15:16:26;52.22;;;21.88;;
77146;SDS011;66121;52.584;9.694;2023-01-29T15:18:57;45.22;;;20.30;;
77146;SDS011;66121;52.584;9.694;2023-01-29T15:21:37;56.35;;;23.35;;
77146;SDS011;66121;52.584;9.694;2023-01-29T15:24:03;54.63;;;21.53;;
77146;SDS011;66121;52.584;9.694;2023-01-29T15:26:31;55.60;;;21.92;;
77146;SDS011;66121;52.584;9.694;2023-01-29T15:29:00;61.78;;;23.48;;
77146;SDS011;66121;52.584;9.694;2023-01-29T15:31:26;50.95;;;19.17;;
77146;SDS011;66121;52.584;9.694;2023-01-29T15:33:53;59.03;;;23.98;;
77146;SDS011;66121;52.584;9.694;2023-01-29T15:36:27;58.00;;;24.58;;
77146;SDS011;66121;52.584;9.694;2023-01-29T15:41:43;67.95;;;25.55;;
77146;SDS011;66121;52.584;9.694;2023-01-29T15:44:13;62.13;;;24.30;;
77146;SDS011;66121;52.584;9.694;2023-01-29T15:46:41;50.58;;;21.20;;
77146;SDS011;66121;52.584;9.694;2023-01-29T15:49:28;54.47;;;22.23;;
77146;SDS011;66121;52.584;9.694;2023-01-29T15:51:57;60.78;;;22.83;;
77146;SDS011;66121;52.584;9.694;2023-01-29T15:54:24;57.92;;;22.27;;
77146;SDS011;66121;52.584;9.694;2023-01-29T15:56:55;52.50;;;20.70;;
77146;SDS011;66121;52.584;9.694;2023-01-29T15:59:22;55.00;;;22.17;;
77146;SDS011;66121;52.584;9.694;2023-01-29T16:01:50;56.33;;;21.70;;
77146;SDS011;66121;52.584;9.694;2023-01-29T16:04:19;50.03;;;21.17;;
77146;SDS011;66121;52.584;9.694;2023-01-29T16:06:48;50.63;;;22.65;;
77146;SDS011;66121;52.584;9.694;2023-01-29T16:09:17;50.03;;;21.55;;
77146;SDS011;66121;52.584;9.694;2023-01-29T16:11:45;45.45;;;19.92;;
77146;SDS011;66121;52.584;9.694;2023-01-29T16:14:14;51.47;;;21.85;;
77146;SDS011;66121;52.584;9.694;2023-01-29T16:16:44;45.05;;;19.52;;
77146;SDS011;66121;52.584;9.694;2023-01-29T16:21:47;49.28;;;20.83;;
77146;SDS011;66121;52.584;9.694;2023-01-29T16:24:17;48.05;;;21.20;;
77146;SDS011;66121;52.584;9.694;2023-01-29T16:26:46;47.00;;;20.08;;
77146;SDS011;66121;52.584;9.694;2023-01-29T16:29:19;46.33;;;20.17;;
77146;SDS011;66121;52.584;9.694;2023-01-29T16:31:47;49.00;;;19.83;;
77146;SDS011;66121;52.584;9.694;2023-01-29T16:34:22;48.78;;;19.02;;
77146;SDS011;66121;52.584;9.694;2023-01-29T16:39:21;41.53;;;16.45;;
77146;SDS011;66121;52.584;9.694;2023-01-29T16:42:34;41.97;;;19.35;;
77146;SDS011;66121;52.584;9.694;2023-01-29T16:44:45;44.58;;;18.13;;
77146;SDS011;66121;52.584;9.694;2023-01-29T16:47:22;40.08;;;17.40;;
77146;SDS011;66121;52.584;9.694;2023-01-29T16:50:34;51.20;;;21.30;;
77146;SDS011;66121;52.584;9.694;2023-01-29T16:56:13;49.63;;;19.30;;
77146;SDS011;66121;52.584;9.694;2023-01-29T16:58:39;47.53;;;21.27;;
77146;SDS011;66121;52.584;9.694;2023-01-29T17:01:10;50.20;;;22.50;;
77146;SDS011;66121;52.584;9.694;2023-01-29T17:03:58;50.70;;;21.95;;
77146;SDS011;66121;52.584;9.694;2023-01-29T17:06:32;51.85;;;20.52;;
77146;SDS011;66121;52.584;9.694;2023-01-29T17:08:59;49.13;;;19.92;;
77146;SDS011;66121;52.584;9.694;2023-01-29T17:11:46;53.15;;;20.10;;
77146;SDS011;66121;52.584;9.694;2023-01-29T17:14:10;50.75;;;20.13;;
77146;SDS011;66121;52.584;9.694;2023-01-29T17:16:51;46.50;;;20.92;;
77146;SDS011;66121;52.584;9.694;2023-01-29T17:19:46;48.53;;;19.63;;
77146;SDS011;66121;52.584;9.694;2023-01-29T17:25:12;50.25;;;20.33;;
77146;SDS011;66121;52.584;9.694;2023-01-29T17:27:39;48.05;;;18.50;;
77146;SDS011;66121;52.584;9.694;2023-01-29T17:30:06;52.45;;;22.25;;
77146;SDS011;66121;52.584;9.694;2023-01-29T17:32:54;49.22;;;20.55;;
77146;SDS011;66121;52.584;9.694;2023-01-29T17:35:19;54.97;;;23.45;;
77146;SDS011;66121;52.584;9.694;2023-01-29T17:37:44;56.90;;;21.63;;
77146;SDS011;66121;52.584;9.694;2023-01-29T17:43:05;60.35;;;24.42;;
77146;SDS011;66121;52.584;9.694;2023-01-29T17:45:31;54.65;;;21.75;;
77146;SDS011;66121;52.584;9.694;2023-01-29T17:47:57;48.15;;;20.98;;